createdAt,value
2023-01-22T00:01:21.342Z,23.48
2023-01-22T00:03:52.432Z,21.00
2023-01-22T00:06:20.548Z,22.60
2023-01-22T00:08:49.098Z,21.35
2023-01-22T00:11:18.595Z,24.42
2023-01-22T00:13:47.520Z,23.65
2023-01-22T00:16:17.036Z,23.88
2023-01-22T00:18:45.399Z,23.15
2023-01-22T00:21:14.846Z,23.20
2023-01-22T00:23:42.837Z,22.10
2023-01-22T00:26:13.322Z,21.75
2023-01-22T00:28:45.053Z,24.08
2023-01-22T00:31:13.944Z,23.80
2023-01-22T00:33:43.958Z,25.48
2023-01-22T00:36:15.530Z,22.25
2023-01-22T00:38:43.641Z,22.90
2023-01-22T00:41:12.749Z,22.63
2023-01-22T00:43:42.173Z,23.17
2023-01-22T00:46:12.456Z,23.42
2023-01-22T00:48:40.849Z,23.42
2023-01-22T00:51:12.994Z,25.55
2023-01-22T00:53:43.733Z,23.23
2023-01-22T00:56:12.749Z,23.23
2023-01-22T00:58:41.104Z,23.63
2023-01-22T01:01:09.770Z,20.25
2023-01-22T01:03:38.274Z,20.73
2023-01-22T01:06:08.257Z,19.98
2023-01-22T01:08:37.922Z,19.48
2023-01-22T01:11:08.799Z,19.13
2023-01-22T01:13:39.215Z,19.52
2023-01-22T01:16:09.532Z,19.40
2023-01-22T01:18:37.908Z,21.23
2023-01-22T01:21:07.492Z,21.30
2023-01-22T01:23:36.402Z,20.52
2023-01-22T01:26:10.931Z,21.98
2023-01-22T01:28:40.793Z,20.20
2023-01-22T01:31:10.686Z,21.20
2023-01-22T01:33:38.998Z,21.70
2023-01-22T01:36:09.480Z,22.30
2023-01-22T01:38:37.859Z,20.15
2023-01-22T01:41:08.471Z,20.65
2023-01-22T01:43:36.711Z,19.58
2023-01-22T01:46:06.342Z,20.88
2023-01-22T01:48:38.932Z,20.73
2023-01-22T01:51:12.426Z,20.27
2023-01-22T01:53:41.867Z,21.05
2023-01-22T01:56:14.857Z,21.77
2023-01-22T01:58:45.783Z,23.77
2023-01-22T02:01:16.399Z,22.17
2023-01-22T02:03:45.021Z,22.13
2023-01-22T02:06:14.575Z,21.42
2023-01-22T02:08:44.869Z,21.88
2023-01-22T02:11:14.709Z,19.83
2023-01-22T02:13:47.462Z,20.73
2023-01-22T02:16:15.529Z,21.08
2023-01-22T02:18:43.572Z,20.92
2023-01-22T02:21:35.450Z,21.90
2023-01-22T02:24:04.421Z,21.05
2023-01-22T02:26:34.047Z,19.30
2023-01-22T02:29:02.050Z,20.75
2023-01-22T02:31:32.011Z,20.85
2023-01-22T02:34:01.867Z,21.20
2023-01-22T02:36:32.207Z,20.73
2023-01-22T02:39:01.627Z,22.13
2023-01-22T02:41:30.093Z,21.35
2023-01-22T02:43:58.172Z,21.73
2023-01-22T02:46:26.378Z,20.90
2023-01-22T02:48:54.460Z,21.10
2023-01-22T02:51:23.125Z,21.55
2023-01-22T02:53:51.562Z,19.42
2023-01-22T02:56:21.681Z,21.45
2023-01-22T02:58:49.901Z,19.25
2023-01-22T03:01:20.557Z,20.73
2023-01-22T03:03:52.872Z,20.50
2023-01-22T03:06:22.820Z,20.77
2023-01-22T03:08:53.240Z,18.55
2023-01-22T03:11:23.407Z,18.85
2023-01-22T03:14:09.073Z,19.73
2023-01-22T03:16:54.478Z,20.30
2023-01-22T03:19:41.903Z,19.85
2023-01-22T03:22:15.699Z,20.10
2023-01-22T03:24:43.745Z,20.75
2023-01-22T03:27:13.455Z,20.60
2023-01-22T03:29:41.420Z,21.15
2023-01-22T03:32:09.585Z,20.33
2023-01-22T03:34:39.044Z,17.95
2023-01-22T03:37:07.856Z,18.80
2023-01-22T03:39:36.974Z,19.13
2023-01-22T03:42:05.674Z,18.40
2023-01-22T03:44:36.164Z,18.05
2023-01-22T03:47:04.391Z,18.48
2023-01-22T03:49:32.749Z,18.45
2023-01-22T03:52:00.790Z,17.77
2023-01-22T03:54:28.816Z,18.48
2023-01-22T03:56:58.899Z,18.42
2023-01-22T03:59:31.605Z,17.13
2023-01-22T04:02:01.040Z,19.65
2023-01-22T04:04:30.708Z,17.65
2023-01-22T04:06:58.757Z,18.42
2023-01-22T04:09:26.734Z,15.77
2023-01-22T04:11:54.825Z,16.35
2023-01-22T04:14:22.918Z,16.27
2023-01-22T04:16:58.054Z,16.23
2023-01-22T04:19:50.526Z,17.50
2023-01-22T04:22:44.411Z,16.42
2023-01-22T04:25:13.981Z,16.40
2023-01-22T04:27:42.121Z,16.10
2023-01-22T04:30:12.025Z,16.92
2023-01-22T04:32:40.257Z,15.85
2023-01-22T04:35:23.954Z,18.02
2023-01-22T04:37:58.476Z,17.05
2023-01-22T04:40:26.833Z,17.33
2023-01-22T04:42:56.123Z,15.73
2023-01-22T04:45:24.923Z,15.20
2023-01-22T04:47:53.102Z,15.60
2023-01-22T04:50:26.954Z,16.00
2023-01-22T04:52:56.224Z,15.80
2023-01-22T04:55:25.903Z,15.43
2023-01-22T04:58:01.992Z,15.73
2023-01-22T05:00:31.534Z,14.65
2023-01-22T05:03:04.103Z,14.27
2023-01-22T05:05:34.738Z,15.32
2023-01-22T05:08:03.453Z,13.88
2023-01-22T05:10:33.812Z,13.85
2023-01-22T05:13:04.878Z,14.13
2023-01-22T05:15:33.910Z,14.45
2023-01-22T05:18:07.918Z,14.32
2023-01-22T05:20:39.533Z,14.65
2023-01-22T05:23:08.631Z,14.43
2023-01-22T05:25:36.988Z,14.07
2023-01-22T05:28:06.106Z,14.68
2023-01-22T05:30:57.109Z,14.43
2023-01-22T05:33:33.575Z,14.35
2023-01-22T05:36:04.372Z,14.57
2023-01-22T05:38:32.704Z,14.88
2023-01-22T05:41:00.825Z,14.68
2023-01-22T05:43:32.708Z,15.80
2023-01-22T05:46:05.353Z,14.65
2023-01-22T05:48:52.052Z,12.70
2023-01-22T05:51:26.702Z,14.35
2023-01-22T05:53:54.773Z,14.27
2023-01-22T05:56:24.484Z,13.80
2023-01-22T05:58:52.594Z,14.25
2023-01-22T06:01:21.004Z,13.10
2023-01-22T06:03:53.121Z,14.48
2023-01-22T06:06:25.770Z,14.40
2023-01-22T06:08:54.204Z,15.27
2023-01-22T06:11:23.664Z,13.98
2023-01-22T06:13:51.746Z,15.45
2023-01-22T06:16:21.466Z,14.80
2023-01-22T06:19:02.456Z,14.48
2023-01-22T06:21:37.987Z,14.35
2023-01-22T06:24:06.712Z,14.40
2023-01-22T06:26:34.945Z,13.40
2023-01-22T06:29:04.004Z,13.18
2023-01-22T06:31:32.412Z,12.98
2023-01-22T06:34:00.976Z,13.18
2023-01-22T06:36:29.276Z,13.93
2023-01-22T06:38:58.863Z,13.50
2023-01-22T06:41:38.224Z,14.43
2023-01-22T06:44:08.732Z,13.93
2023-01-22T06:46:36.828Z,14.30
2023-01-22T06:49:09.727Z,14.25
2023-01-22T06:51:37.853Z,15.13
2023-01-22T06:54:07.242Z,15.18
2023-01-22T06:56:35.371Z,15.40
2023-01-22T06:59:05.722Z,15.63
2023-01-22T07:01:33.702Z,15.20
2023-01-22T07:04:01.730Z,15.07
2023-01-22T07:06:29.751Z,14.93
2023-01-22T07:08:57.910Z,14.90
2023-01-22T07:11:27.863Z,13.43
2023-01-22T07:13:55.848Z,12.80
2023-01-22T07:16:23.943Z,13.43
2023-01-22T07:18:51.958Z,13.98
2023-01-22T07:21:19.965Z,14.80
2023-01-22T07:23:47.965Z,13.63
2023-01-22T07:26:17.134Z,13.15
2023-01-22T07:28:46.649Z,13.30
2023-01-22T07:31:15.090Z,13.25
2023-01-22T07:33:44.205Z,13.57
2023-01-22T07:36:12.203Z,13.68
2023-01-22T07:38:40.204Z,13.85
2023-01-22T07:41:20.308Z,13.23
2023-01-22T07:43:56.913Z,12.70
2023-01-22T07:46:25.042Z,12.43
2023-01-22T07:48:53.056Z,12.20
2023-01-22T07:51:21.113Z,14.27
2023-01-22T07:53:49.144Z,12.65
2023-01-22T07:56:19.055Z,13.23
2023-01-22T07:58:47.255Z,13.02
2023-01-22T08:01:17.255Z,12.25
2023-01-22T08:03:45.297Z,12.75
2023-01-22T08:06:16.955Z,12.27
2023-01-22T08:08:45.174Z,12.40
2023-01-22T08:11:14.002Z,11.73
2023-01-22T08:13:42.213Z,13.02
2023-01-22T08:16:10.280Z,11.95
2023-01-22T08:18:39.688Z,11.90
2023-01-22T08:21:08.091Z,13.23
2023-01-22T08:23:36.422Z,12.30
2023-01-22T08:26:05.463Z,11.70
2023-01-22T08:28:33.661Z,11.90
2023-01-22T08:31:03.401Z,11.27
2023-01-22T08:33:34.188Z,12.60
2023-01-22T08:36:03.739Z,12.00
2023-01-22T08:38:31.710Z,11.55
2023-01-22T08:40:59.740Z,11.60
2023-01-22T08:43:27.854Z,10.75
2023-01-22T08:45:56.232Z,10.02
2023-01-22T08:48:24.616Z,11.57
2023-01-22T08:50:52.877Z,10.23
2023-01-22T08:53:22.276Z,10.55
2023-01-22T08:55:50.965Z,10.80
2023-01-22T08:58:20.978Z,10.93
2023-01-22T09:00:49.303Z,11.50
2023-01-22T09:03:17.444Z,13.35
2023-01-22T09:05:45.492Z,11.23
2023-01-22T09:08:13.437Z,12.75
2023-01-22T09:10:44.100Z,12.27
2023-01-22T09:13:12.086Z,12.88
2023-01-22T09:15:41.349Z,12.68
2023-01-22T09:18:09.396Z,14.48
2023-01-22T09:20:37.433Z,13.73
2023-01-22T09:23:05.456Z,14.73
2023-01-22T09:25:33.611Z,15.43
2023-01-22T09:28:05.041Z,15.88
2023-01-22T09:30:33.359Z,16.52
2023-01-22T09:33:01.469Z,16.90
2023-01-22T09:35:29.874Z,17.50
2023-01-22T09:37:57.995Z,17.08
2023-01-22T09:40:30.260Z,15.63
2023-01-22T09:43:05.848Z,16.33
2023-01-22T09:45:38.009Z,19.05
2023-01-22T09:48:10.394Z,19.10
2023-01-22T09:50:39.392Z,18.85
2023-01-22T09:53:12.736Z,18.83
2023-01-22T09:55:45.291Z,18.52
2023-01-22T09:58:17.383Z,18.85
2023-01-22T10:00:49.786Z,18.50
2023-01-22T10:03:23.241Z,19.92
2023-01-22T10:05:55.073Z,21.98
2023-01-22T10:08:25.215Z,21.38
2023-01-22T10:10:53.471Z,21.98
2023-01-22T10:13:24.534Z,21.92
2023-01-22T10:15:55.023Z,20.83
2023-01-22T10:18:30.721Z,20.33
2023-01-22T10:21:01.572Z,22.08
2023-01-22T10:23:31.880Z,21.45
2023-01-22T10:26:06.589Z,23.08
2023-01-22T10:28:36.801Z,20.95
2023-01-22T10:31:04.985Z,21.98
2023-01-22T10:33:44.400Z,24.27
2023-01-22T10:36:15.689Z,23.40
2023-01-22T10:38:43.718Z,24.08
2023-01-22T10:41:18.763Z,25.42
2023-01-22T10:43:48.758Z,24.25
2023-01-22T10:46:20.644Z,24.10
2023-01-22T10:49:00.186Z,27.65
2023-01-22T10:51:32.742Z,24.95
2023-01-22T10:54:01.543Z,24.08
2023-01-22T10:56:33.350Z,22.63
2023-01-22T10:59:05.964Z,23.13
2023-01-22T11:01:36.272Z,23.10
2023-01-22T11:04:13.367Z,22.20
2023-01-22T11:06:47.115Z,21.10
2023-01-22T11:09:20.447Z,21.40
2023-01-22T11:11:53.014Z,21.08
2023-01-22T11:14:27.112Z,21.17
2023-01-22T11:17:02.267Z,20.42
2023-01-22T11:19:37.819Z,18.17
2023-01-22T11:24:42.221Z,17.70
2023-01-22T11:27:26.907Z,17.35
2023-01-22T11:30:12.606Z,15.77
2023-01-22T11:32:55.425Z,16.98
2023-01-22T11:35:28.751Z,16.13
2023-01-22T11:38:09.098Z,13.98
2023-01-22T11:40:41.858Z,13.73
2023-01-22T11:43:29.815Z,13.48
2023-01-22T11:46:24.025Z,13.90
2023-01-22T11:49:12.772Z,13.50
2023-01-22T11:51:48.599Z,12.20
2023-01-22T11:54:43.535Z,11.45
2023-01-22T11:57:18.131Z,10.98
2023-01-22T12:00:19.094Z,12.23
2023-01-22T12:03:13.321Z,11.73
2023-01-22T12:05:47.056Z,11.45
2023-01-22T12:08:41.738Z,12.27
2023-01-22T12:11:20.137Z,12.98
2023-01-22T12:14:13.156Z,12.05
2023-01-22T12:16:48.859Z,12.18
2023-01-22T12:19:41.627Z,12.02
2023-01-22T12:22:22.528Z,13.05
2023-01-22T12:24:58.657Z,13.38
2023-01-22T12:27:32.716Z,14.48
2023-01-22T12:30:14.911Z,13.95
2023-01-22T12:32:46.313Z,14.85
2023-01-22T12:35:18.279Z,14.70
2023-01-22T12:37:49.596Z,14.70
2023-01-22T12:40:52.901Z,13.82
2023-01-22T12:43:28.745Z,13.38
2023-01-22T12:46:03.767Z,15.93
2023-01-22T12:48:39.173Z,13.13
2023-01-22T12:51:27.944Z,13.65
2023-01-22T12:53:55.986Z,14.30
2023-01-22T12:56:31.940Z,13.63
2023-01-22T12:59:00.352Z,14.63
2023-01-22T13:01:35.221Z,15.55
2023-01-22T13:04:06.776Z,14.48
2023-01-22T13:06:38.437Z,16.70
2023-01-22T13:09:08.258Z,16.92
2023-01-22T13:11:37.983Z,15.45
2023-01-22T13:14:18.192Z,15.00
2023-01-22T13:16:54.042Z,15.75
2023-01-22T13:19:25.862Z,15.90
2023-01-22T13:21:59.526Z,17.23
2023-01-22T13:24:27.592Z,17.38
2023-01-22T13:26:58.857Z,16.40
2023-01-22T13:29:29.267Z,15.98
2023-01-22T13:32:00.069Z,16.10
2023-01-22T13:34:29.465Z,17.02
2023-01-22T13:36:59.438Z,18.02
2023-01-22T13:39:29.905Z,18.48
2023-01-22T13:42:00.114Z,18.20
2023-01-22T13:44:33.358Z,17.27
2023-01-22T13:47:01.881Z,18.10
2023-01-22T13:49:32.169Z,17.90
2023-01-22T13:52:08.126Z,18.05
2023-01-22T13:54:39.383Z,17.90
2023-01-22T13:57:07.572Z,17.90
2023-01-22T13:59:35.882Z,17.27
2023-01-22T14:02:21.401Z,17.73
2023-01-22T14:04:50.382Z,18.63
2023-01-22T14:07:27.777Z,17.20
2023-01-22T14:09:57.169Z,18.23
2023-01-22T14:12:27.542Z,17.95
2023-01-22T14:14:55.611Z,16.98
2023-01-22T14:17:26.570Z,18.70
2023-01-22T14:19:54.640Z,18.55
2023-01-22T14:22:23.348Z,18.02
2023-01-22T14:24:53.523Z,18.63
2023-01-22T14:27:22.029Z,20.02
2023-01-22T14:29:50.961Z,17.85
2023-01-22T14:32:18.950Z,18.85
2023-01-22T14:34:47.085Z,18.50
2023-01-22T14:37:16.536Z,17.20
2023-01-22T14:39:44.587Z,16.90
2023-01-22T14:42:14.031Z,17.85
2023-01-22T14:44:42.017Z,17.50
2023-01-22T14:47:10.366Z,18.85
2023-01-22T14:49:40.284Z,19.52
2023-01-22T14:52:08.375Z,17.92
2023-01-22T14:54:36.395Z,17.83
2023-01-22T14:57:04.438Z,17.95
2023-01-22T14:59:33.879Z,18.13
2023-01-22T15:02:01.975Z,18.85
2023-01-22T15:04:30.029Z,18.70
2023-01-22T15:06:58.244Z,17.80
2023-01-22T15:09:26.299Z,17.83
2023-01-22T15:11:54.348Z,18.88
2023-01-22T15:14:22.324Z,20.20
2023-01-22T15:16:51.765Z,19.20
2023-01-22T15:19:20.550Z,19.98
2023-01-22T15:21:48.813Z,18.33
2023-01-22T15:24:16.843Z,18.00
2023-01-22T15:26:44.896Z,19.33
2023-01-22T15:29:14.451Z,21.65
2023-01-22T15:31:43.123Z,18.98
2023-01-22T15:34:12.546Z,20.08
2023-01-22T15:36:40.905Z,21.75
2023-01-22T15:39:09.424Z,21.98
2023-01-22T15:41:38.620Z,24.90
2023-01-22T15:44:07.140Z,25.23
2023-01-22T15:46:37.284Z,23.65
2023-01-22T15:49:08.151Z,24.48
2023-01-22T15:51:37.662Z,24.17
2023-01-22T15:54:07.686Z,23.77
2023-01-22T15:56:37.475Z,25.30
2023-01-22T15:59:06.237Z,24.77
2023-01-22T16:01:34.626Z,26.10
2023-01-22T16:04:03.845Z,24.83
2023-01-22T16:06:33.780Z,27.05
2023-01-22T16:09:05.800Z,24.35
2023-01-22T16:11:34.694Z,24.73
2023-01-22T16:14:02.896Z,24.90
2023-01-22T16:16:33.095Z,25.20
2023-01-22T16:19:03.507Z,25.35
2023-01-22T16:21:31.540Z,27.70
2023-01-22T16:24:02.311Z,26.95
2023-01-22T16:26:32.690Z,27.95
2023-01-22T16:29:03.433Z,31.20
2023-01-22T16:31:33.610Z,25.77
2023-01-22T16:34:06.983Z,28.77
2023-01-22T16:36:35.016Z,27.55
2023-01-22T16:39:04.881Z,27.60
2023-01-22T16:41:34.354Z,28.60
2023-01-22T16:44:07.234Z,29.13
2023-01-22T16:46:36.450Z,28.25
2023-01-22T16:49:06.266Z,30.27
2023-01-22T16:51:37.010Z,28.27
2023-01-22T16:54:08.215Z,33.05
2023-01-22T16:56:36.558Z,29.15
2023-01-22T16:59:04.550Z,31.55
2023-01-22T17:01:32.827Z,31.02
2023-01-22T17:04:00.909Z,30.90
2023-01-22T17:06:32.338Z,31.67
2023-01-22T17:09:01.021Z,29.92
2023-01-22T17:11:30.404Z,31.48
2023-01-22T17:14:00.387Z,31.65
2023-01-22T17:16:28.474Z,32.83
2023-01-22T17:18:58.917Z,31.35
2023-01-22T17:21:28.563Z,33.50
2023-01-22T17:23:56.723Z,32.70
2023-01-22T17:26:24.843Z,32.20
2023-01-22T17:28:54.531Z,31.63
2023-01-22T17:31:24.418Z,36.38
2023-01-22T17:33:55.247Z,31.00
2023-01-22T17:36:25.163Z,35.08
2023-01-22T17:38:53.433Z,35.40
2023-01-22T17:41:23.844Z,33.13
2023-01-22T17:43:55.986Z,33.33
2023-01-22T17:46:27.176Z,33.55
2023-01-22T17:48:56.023Z,32.28
2023-01-22T17:51:26.515Z,32.55
2023-01-22T17:53:55.857Z,32.72
2023-01-22T17:56:25.985Z,30.48
2023-01-22T17:58:57.039Z,31.45
2023-01-22T18:01:28.598Z,30.90
2023-01-22T18:03:58.293Z,33.25
2023-01-22T18:06:26.813Z,31.42
2023-01-22T18:08:55.629Z,30.45
2023-01-22T18:11:27.681Z,31.55
2023-01-22T18:13:58.015Z,32.17
2023-01-22T18:16:27.460Z,30.42
2023-01-22T18:18:57.007Z,34.35
2023-01-22T18:21:25.459Z,30.77
2023-01-22T18:23:53.994Z,28.55
2023-01-22T18:26:23.790Z,26.63
2023-01-22T18:28:52.908Z,26.13
2023-01-22T18:31:24.615Z,25.77
2023-01-22T18:33:53.740Z,27.60
2023-01-22T18:36:23.567Z,25.42
2023-01-22T18:38:52.605Z,27.15
2023-01-22T18:41:23.787Z,24.88
2023-01-22T18:43:55.234Z,27.33
2023-01-22T18:46:25.919Z,25.98
2023-01-22T18:48:55.487Z,26.80
2023-01-22T18:51:24.384Z,23.60
2023-01-22T18:53:52.486Z,27.25
2023-01-22T18:56:20.570Z,25.20
2023-01-22T18:58:48.817Z,23.73
2023-01-22T19:01:19.160Z,23.17
2023-01-22T19:03:50.235Z,22.42
2023-01-22T19:06:21.420Z,24.40
2023-01-22T19:08:54.447Z,22.85
2023-01-22T19:11:22.706Z,20.90
2023-01-22T19:13:53.613Z,22.77
2023-01-22T19:16:24.237Z,23.35
2023-01-22T19:18:56.639Z,23.13
2023-01-22T19:21:25.398Z,19.60
2023-01-22T19:23:55.302Z,21.15
2023-01-22T19:26:26.960Z,21.30
2023-01-22T19:28:57.463Z,20.23
2023-01-22T19:31:28.127Z,20.23
2023-01-22T19:33:58.158Z,19.38
2023-01-22T19:36:28.715Z,20.67
2023-01-22T19:38:57.421Z,20.20
2023-01-22T19:41:26.603Z,20.08
2023-01-22T19:43:55.365Z,22.15
2023-01-22T19:46:24.895Z,21.02
2023-01-22T19:48:53.276Z,21.33
2023-01-22T19:51:24.607Z,19.75
2023-01-22T19:53:52.737Z,22.15
2023-01-22T19:56:22.690Z,19.50
2023-01-22T19:58:51.903Z,20.70
2023-01-22T20:01:20.011Z,20.70
2023-01-22T20:03:48.678Z,20.70
2023-01-22T20:06:17.946Z,20.98
2023-01-22T20:08:47.244Z,19.63
2023-01-22T20:11:16.002Z,21.75
2023-01-22T20:13:44.236Z,22.17
2023-01-22T20:16:20.793Z,21.98
2023-01-22T20:18:49.982Z,20.65
2023-01-22T20:21:18.726Z,19.98
2023-01-22T20:23:49.617Z,21.23
2023-01-22T20:26:19.498Z,20.13
2023-01-22T20:28:48.128Z,21.30
2023-01-22T20:31:19.895Z,20.50
2023-01-22T20:33:48.192Z,21.95
2023-01-22T20:36:16.694Z,20.80
2023-01-22T20:38:46.029Z,20.30
2023-01-22T20:41:16.977Z,20.35
2023-01-22T20:43:45.913Z,21.02
2023-01-22T20:46:16.293Z,21.67
2023-01-22T20:48:45.197Z,19.60
2023-01-22T20:51:15.655Z,22.13
2023-01-22T20:53:44.216Z,21.17
2023-01-22T20:56:15.940Z,21.92
2023-01-22T20:58:44.286Z,20.45
2023-01-22T21:01:15.684Z,20.10
2023-01-22T21:03:44.730Z,20.40
2023-01-22T21:06:14.540Z,19.23
2023-01-22T21:08:43.263Z,19.70
2023-01-22T21:11:14.047Z,16.88
2023-01-22T21:13:43.418Z,18.85
2023-01-22T21:16:13.570Z,16.42
2023-01-22T21:18:44.362Z,17.25
2023-01-22T21:21:13.799Z,17.77
2023-01-22T21:23:42.356Z,15.73
2023-01-22T21:26:13.074Z,17.05
2023-01-22T21:28:41.324Z,14.77
2023-01-22T21:31:13.209Z,15.65
2023-01-22T21:33:42.180Z,15.13
2023-01-22T21:36:11.325Z,14.15
2023-01-22T21:38:40.081Z,14.38
2023-01-22T21:41:09.652Z,16.60
2023-01-22T21:43:55.410Z,14.27
2023-01-22T21:46:25.915Z,15.50
2023-01-22T21:48:57.214Z,14.93
2023-01-22T21:51:25.510Z,14.98
2023-01-22T21:53:54.366Z,14.60
2023-01-22T21:56:22.757Z,14.07
2023-01-22T21:58:51.094Z,15.02
2023-01-22T22:01:22.390Z,14.90
2023-01-22T22:03:51.751Z,15.82
2023-01-22T22:06:19.852Z,16.30
2023-01-22T22:08:47.934Z,16.02
2023-01-22T22:11:15.944Z,17.95
2023-01-22T22:13:43.947Z,17.50
2023-01-22T22:16:13.048Z,17.05
2023-01-22T22:18:41.400Z,16.67
2023-01-22T22:21:11.455Z,17.95
2023-01-22T22:23:39.718Z,19.30
2023-01-22T22:26:09.371Z,17.65
2023-01-22T22:28:37.537Z,18.92
2023-01-22T22:31:08.267Z,18.88
2023-01-22T22:33:36.259Z,19.13
2023-01-22T22:36:04.527Z,18.60
2023-01-22T22:38:33.910Z,18.98
2023-01-22T22:41:04.181Z,15.77
2023-01-22T22:43:36.111Z,17.83
2023-01-22T22:46:09.029Z,16.55
2023-01-22T22:48:37.253Z,16.02
2023-01-22T22:51:11.520Z,17.75
2023-01-22T22:53:41.395Z,17.58
2023-01-22T22:56:11.839Z,17.15
2023-01-22T22:58:40.423Z,18.52
2023-01-22T23:01:09.267Z,17.17
2023-01-22T23:03:38.473Z,17.52
2023-01-22T23:06:10.382Z,16.75
2023-01-22T23:08:40.130Z,15.43
2023-01-22T23:11:09.700Z,18.25
2023-01-22T23:13:38.231Z,17.52
2023-01-22T23:16:08.102Z,17.25
2023-01-22T23:18:37.191Z,16.50
2023-01-22T23:21:06.187Z,17.33
2023-01-22T23:23:34.830Z,17.02
2023-01-22T23:26:07.921Z,17.83
2023-01-22T23:28:36.075Z,17.80
2023-01-22T23:31:05.868Z,20.13
2023-01-22T23:33:33.902Z,19.27
2023-01-22T23:36:02.230Z,19.15
2023-01-22T23:38:30.400Z,20.13
2023-01-22T23:40:58.728Z,19.77
2023-01-22T23:43:28.272Z,17.58
2023-01-22T23:45:56.695Z,18.17
2023-01-22T23:48:24.816Z,16.92
2023-01-22T23:50:54.487Z,17.42
2023-01-22T23:53:23.850Z,17.88
2023-01-22T23:55:51.805Z,16.63
2023-01-22T23:58:20.870Z,17.77
